sensor_id;sensor_type;location;lat;lon;timestamp;P1;durP1;ratioP1;P2;durP2;ratioP2
47778;SDS011;33538;48.432;11.350;2023-02-22T00:00:39;7.38;;;3.28;;
47778;SDS011;33538;48.432;11.350;2023-02-22T00:03:06;4.63;;;2.72;;
47778;SDS011;33538;48.432;11.350;2023-02-22T00:05:34;4.88;;;3.13;;
47778;SDS011;33538;48.432;11.350;2023-02-22T00:08:01;7.93;;;3.72;;
47778;SDS011;33538;48.432;11.350;2023-02-22T00:10:28;6.93;;;4.00;;
47778;SDS011;33538;48.432;11.350;2023-02-22T00:12:56;8.32;;;3.90;;
47778;SDS011;33538;48.432;11.350;2023-02-22T00:15:23;7.72;;;4.05;;
47778;SDS011;33538;48.432;11.350;2023-02-22T00:17:50;7.18;;;3.97;;
47778;SDS011;33538;48.432;11.350;2023-02-22T00:20:16;11.88;;;4.25;;
47778;SDS011;33538;48.432;11.350;2023-02-22T00:22:44;9.70;;;4.32;;
47778;SDS011;33538;48.432;11.350;2023-02-22T00:25:13;8.13;;;3.85;;
47778;SDS011;33538;48.432;11.350;2023-02-22T00:27:40;10.13;;;4.60;;
47778;SDS011;33538;48.432;11.350;2023-02-22T00:30:09;7.68;;;4.28;;
47778;SDS011;33538;48.432;11.350;2023-02-22T00:32:40;12.43;;;4.65;;
47778;SDS011;33538;48.432;11.350;2023-02-22T00:35:08;9.43;;;4.38;;
47778;SDS011;33538;48.432;11.350;2023-02-22T00:37:35;12.80;;;5.63;;
47778;SDS011;33538;48.432;11.350;2023-02-22T00:40:02;10.70;;;5.05;;
47778;SDS011;33538;48.432;11.350;2023-02-22T00:42:28;8.32;;;5.00;;
47778;SDS011;33538;48.432;11.350;2023-02-22T00:44:55;8.40;;;4.30;;
47778;SDS011;33538;48.432;11.350;2023-02-22T00:47:23;9.93;;;5.03;;
47778;SDS011;33538;48.432;11.350;2023-02-22T00:49:50;9.05;;;4.93;;
47778;SDS011;33538;48.432;11.350;2023-02-22T00:52:17;9.10;;;4.53;;
47778;SDS011;33538;48.432;11.350;2023-02-22T00:54:44;9.68;;;4.82;;
47778;SDS011;33538;48.432;11.350;2023-02-22T00:57:10;9.02;;;4.30;;
47778;SDS011;33538;48.432;11.350;2023-02-22T00:59:37;8.07;;;4.32;;
47778;SDS011;33538;48.432;11.350;2023-02-22T01:02:04;7.38;;;3.40;;
47778;SDS011;33538;48.432;11.350;2023-02-22T01:04:33;5.43;;;3.38;;
47778;SDS011;33538;48.432;11.350;2023-02-22T01:06:59;5.45;;;3.33;;
47778;SDS011;33538;48.432;11.350;2023-02-22T01:09:26;4.78;;;3.47;;
47778;SDS011;33538;48.432;11.350;2023-02-22T01:11:53;8.80;;;4.00;;
47778;SDS011;33538;48.432;11.350;2023-02-22T01:14:21;6.72;;;3.50;;
47778;SDS011;33538;48.432;11.350;2023-02-22T01:16:48;7.20;;;3.55;;
47778;SDS011;33538;48.432;11.350;2023-02-22T01:19:15;6.35;;;3.35;;
47778;SDS011;33538;48.432;11.350;2023-02-22T01:21:43;7.15;;;3.88;;
47778;SDS011;33538;48.432;11.350;2023-02-22T01:24:10;5.00;;;3.08;;
47778;SDS011;33538;48.432;11.350;2023-02-22T01:26:37;6.25;;;3.38;;
47778;SDS011;33538;48.432;11.350;2023-02-22T01:29:03;6.55;;;3.65;;
47778;SDS011;33538;48.432;11.350;2023-02-22T01:31:30;7.30;;;4.00;;
47778;SDS011;33538;48.432;11.350;2023-02-22T01:33:57;6.88;;;3.58;;
47778;SDS011;33538;48.432;11.350;2023-02-22T01:36:24;9.30;;;4.38;;
47778;SDS011;33538;48.432;11.350;2023-02-22T01:38:52;6.28;;;4.03;;
47778;SDS011;33538;48.432;11.350;2023-02-22T01:41:19;7.18;;;4.03;;
47778;SDS011;33538;48.432;11.350;2023-02-22T01:43:45;8.48;;;3.97;;
47778;SDS011;33538;48.432;11.350;2023-02-22T01:46:19;7.60;;;3.50;;
47778;SDS011;33538;48.432;11.350;2023-02-22T01:48:48;7.07;;;3.67;;
47778;SDS011;33538;48.432;11.350;2023-02-22T01:51:19;6.00;;;3.90;;
47778;SDS011;33538;48.432;11.350;2023-02-22T01:53:49;6.75;;;3.67;;
47778;SDS011;33538;48.432;11.350;2023-02-22T01:56:21;6.35;;;3.92;;
47778;SDS011;33538;48.432;11.350;2023-02-22T01:58:52;8.20;;;4.20;;
47778;SDS011;33538;48.432;11.350;2023-02-22T02:01:22;6.57;;;3.47;;
47778;SDS011;33538;48.432;11.350;2023-02-22T02:03:51;6.15;;;3.50;;
47778;SDS011;33538;48.432;11.350;2023-02-22T02:06:21;6.75;;;3.63;;
47778;SDS011;33538;48.432;11.350;2023-02-22T02:08:49;9.93;;;3.88;;
47778;SDS011;33538;48.432;11.350;2023-02-22T02:11:23;6.07;;;3.28;;
47778;SDS011;33538;48.432;11.350;2023-02-22T02:13:51;7.38;;;3.92;;
47778;SDS011;33538;48.432;11.350;2023-02-22T02:16:19;8.07;;;3.50;;
47778;SDS011;33538;48.432;11.350;2023-02-22T02:18:46;6.30;;;4.03;;
47778;SDS011;33538;48.432;11.350;2023-02-22T02:24:31;10.48;;;4.28;;
47778;SDS011;33538;48.432;11.350;2023-02-22T02:27:19;8.98;;;4.38;;
47778;SDS011;33538;48.432;11.350;2023-02-22T02:33:01;8.30;;;4.28;;
47778;SDS011;33538;48.432;11.350;2023-02-22T02:35:37;9.43;;;4.70;;
47778;SDS011;33538;48.432;11.350;2023-02-22T02:38:15;6.78;;;4.40;;
47778;SDS011;33538;48.432;11.350;2023-02-22T02:40:54;7.25;;;3.95;;
47778;SDS011;33538;48.432;11.350;2023-02-22T02:43:30;6.55;;;4.05;;
47778;SDS011;33538;48.432;11.350;2023-02-22T02:46:02;4.68;;;3.45;;
47778;SDS011;33538;48.432;11.350;2023-02-22T02:48:34;7.43;;;3.75;;
47778;SDS011;33538;48.432;11.350;2023-02-22T02:51:05;5.97;;;3.15;;
47778;SDS011;33538;48.432;11.350;2023-02-22T02:53:35;5.93;;;3.20;;
47778;SDS011;33538;48.432;11.350;2023-02-22T02:56:04;7.18;;;3.65;;
47778;SDS011;33538;48.432;11.350;2023-02-22T02:58:32;6.00;;;3.55;;
47778;SDS011;33538;48.432;11.350;2023-02-22T03:00:59;6.18;;;3.47;;
47778;SDS011;33538;48.432;11.350;2023-02-22T03:06:30;7.68;;;3.55;;
47778;SDS011;33538;48.432;11.350;2023-02-22T03:09:10;6.82;;;3.40;;
47778;SDS011;33538;48.432;11.350;2023-02-22T03:14:17;7.53;;;3.50;;
47778;SDS011;33538;48.432;11.350;2023-02-22T03:16:52;5.93;;;3.47;;
47778;SDS011;33538;48.432;11.350;2023-02-22T03:19:27;7.43;;;3.53;;
47778;SDS011;33538;48.432;11.350;2023-02-22T03:22:02;7.53;;;4.10;;
47778;SDS011;33538;48.432;11.350;2023-02-22T03:24:36;9.55;;;3.72;;
47778;SDS011;33538;48.432;11.350;2023-02-22T03:27:10;7.53;;;4.25;;
47778;SDS011;33538;48.432;11.350;2023-02-22T03:29:42;7.50;;;3.95;;
47778;SDS011;33538;48.432;11.350;2023-02-22T03:32:11;10.10;;;3.58;;
47778;SDS011;33538;48.432;11.350;2023-02-22T03:34:44;7.28;;;3.88;;
47778;SDS011;33538;48.432;11.350;2023-02-22T03:37:17;7.05;;;3.42;;
47778;SDS011;33538;48.432;11.350;2023-02-22T03:39:46;5.30;;;3.38;;
47778;SDS011;33538;48.432;11.350;2023-02-22T03:42:16;8.32;;;3.35;;
47778;SDS011;33538;48.432;11.350;2023-02-22T03:44:47;8.48;;;3.50;;
47778;SDS011;33538;48.432;11.350;2023-02-22T03:47:17;6.45;;;3.40;;
47778;SDS011;33538;48.432;11.350;2023-02-22T03:49:50;8.88;;;3.42;;
47778;SDS011;33538;48.432;11.350;2023-02-22T03:52:21;6.60;;;3.47;;
47778;SDS011;33538;48.432;11.350;2023-02-22T03:54:48;4.75;;;3.22;;
47778;SDS011;33538;48.432;11.350;2023-02-22T03:57:16;7.82;;;4.10;;
47778;SDS011;33538;48.432;11.350;2023-02-22T03:59:48;7.03;;;3.77;;
47778;SDS011;33538;48.432;11.350;2023-02-22T04:02:15;7.95;;;4.03;;
47778;SDS011;33538;48.432;11.350;2023-02-22T04:04:42;6.30;;;4.10;;
47778;SDS011;33538;48.432;11.350;2023-02-22T04:07:10;6.35;;;4.05;;
47778;SDS011;33538;48.432;11.350;2023-02-22T04:09:37;11.95;;;4.60;;
47778;SDS011;33538;48.432;11.350;2023-02-22T04:12:04;6.88;;;3.38;;
47778;SDS011;33538;48.432;11.350;2023-02-22T04:14:31;9.80;;;4.30;;
47778;SDS011;33538;48.432;11.350;2023-02-22T04:16:58;7.43;;;3.40;;
47778;SDS011;33538;48.432;11.350;2023-02-22T04:19:25;6.03;;;3.60;;
47778;SDS011;33538;48.432;11.350;2023-02-22T04:21:52;7.07;;;4.35;;
47778;SDS011;33538;48.432;11.350;2023-02-22T04:24:20;6.25;;;3.90;;
47778;SDS011;33538;48.432;11.350;2023-02-22T04:26:46;8.07;;;4.18;;
47778;SDS011;33538;48.432;11.350;2023-02-22T04:29:13;7.15;;;3.97;;
47778;SDS011;33538;48.432;11.350;2023-02-22T04:31:40;9.13;;;3.55;;
47778;SDS011;33538;48.432;11.350;2023-02-22T04:34:07;9.38;;;3.63;;
47778;SDS011;33538;48.432;11.350;2023-02-22T04:36:33;5.80;;;3.67;;
47778;SDS011;33538;48.432;11.350;2023-02-22T04:39:00;8.63;;;3.80;;
47778;SDS011;33538;48.432;11.350;2023-02-22T04:41:28;8.98;;;4.07;;
47778;SDS011;33538;48.432;11.350;2023-02-22T04:43:55;5.47;;;3.88;;
47778;SDS011;33538;48.432;11.350;2023-02-22T04:46:22;7.85;;;3.75;;
47778;SDS011;33538;48.432;11.350;2023-02-22T04:48:49;5.55;;;3.38;;
47778;SDS011;33538;48.432;11.350;2023-02-22T04:51:16;7.85;;;3.92;;
47778;SDS011;33538;48.432;11.350;2023-02-22T04:53:43;7.22;;;3.90;;
47778;SDS011;33538;48.432;11.350;2023-02-22T04:56:10;8.60;;;3.90;;
47778;SDS011;33538;48.432;11.350;2023-02-22T04:58:38;9.45;;;3.97;;
47778;SDS011;33538;48.432;11.350;2023-02-22T05:01:05;9.55;;;4.03;;
47778;SDS011;33538;48.432;11.350;2023-02-22T05:03:32;12.52;;;4.13;;
47778;SDS011;33538;48.432;11.350;2023-02-22T05:05:58;6.95;;;3.97;;
47778;SDS011;33538;48.432;11.350;2023-02-22T05:08:25;9.25;;;4.28;;
47778;SDS011;33538;48.432;11.350;2023-02-22T05:10:52;21.67;;;9.55;;
47778;SDS011;33538;48.432;11.350;2023-02-22T05:13:19;39.75;;;15.68;;
47778;SDS011;33538;48.432;11.350;2023-02-22T05:15:47;19.88;;;8.25;;
47778;SDS011;33538;48.432;11.350;2023-02-22T05:18:14;8.70;;;4.80;;
47778;SDS011;33538;48.432;11.350;2023-02-22T05:20:41;14.02;;;6.20;;
47778;SDS011;33538;48.432;11.350;2023-02-22T05:23:08;14.27;;;6.72;;
47778;SDS011;33538;48.432;11.350;2023-02-22T05:25:34;14.48;;;7.25;;
47778;SDS011;33538;48.432;11.350;2023-02-22T05:28:02;12.98;;;6.07;;
47778;SDS011;33538;48.432;11.350;2023-02-22T05:30:30;15.60;;;6.22;;
47778;SDS011;33538;48.432;11.350;2023-02-22T05:33:00;12.48;;;6.32;;
47778;SDS011;33538;48.432;11.350;2023-02-22T05:35:27;11.15;;;5.45;;
47778;SDS011;33538;48.432;11.350;2023-02-22T05:37:54;9.32;;;5.05;;
47778;SDS011;33538;48.432;11.350;2023-02-22T05:40:22;10.40;;;4.63;;
47778;SDS011;33538;48.432;11.350;2023-02-22T05:42:51;11.18;;;5.22;;
47778;SDS011;33538;48.432;11.350;2023-02-22T05:45:19;12.10;;;5.78;;
47778;SDS011;33538;48.432;11.350;2023-02-22T05:47:47;12.35;;;5.93;;
47778;SDS011;33538;48.432;11.350;2023-02-22T05:50:16;8.30;;;4.53;;
47778;SDS011;33538;48.432;11.350;2023-02-22T05:52:44;11.35;;;5.97;;
47778;SDS011;33538;48.432;11.350;2023-02-22T05:55:12;13.15;;;5.93;;
47778;SDS011;33538;48.432;11.350;2023-02-22T05:57:39;12.00;;;5.68;;
47778;SDS011;33538;48.432;11.350;2023-02-22T06:00:07;9.73;;;4.53;;
47778;SDS011;33538;48.432;11.350;2023-02-22T06:02:35;8.65;;;4.53;;
47778;SDS011;33538;48.432;11.350;2023-02-22T06:05:02;7.25;;;4.32;;
47778;SDS011;33538;48.432;11.350;2023-02-22T06:07:30;6.75;;;4.53;;
47778;SDS011;33538;48.432;11.350;2023-02-22T06:09:57;9.18;;;4.60;;
47778;SDS011;33538;48.432;11.350;2023-02-22T06:12:23;8.25;;;4.53;;
47778;SDS011;33538;48.432;11.350;2023-02-22T06:14:50;10.98;;;5.15;;
47778;SDS011;33538;48.432;11.350;2023-02-22T06:17:17;10.65;;;5.18;;
47778;SDS011;33538;48.432;11.350;2023-02-22T06:19:45;10.35;;;5.65;;
47778;SDS011;33538;48.432;11.350;2023-02-22T06:22:14;10.35;;;4.90;;
47778;SDS011;33538;48.432;11.350;2023-02-22T06:24:44;10.90;;;5.32;;
47778;SDS011;33538;48.432;11.350;2023-02-22T06:27:11;10.65;;;5.63;;
47778;SDS011;33538;48.432;11.350;2023-02-22T06:29:37;9.25;;;4.97;;
47778;SDS011;33538;48.432;11.350;2023-02-22T06:32:04;10.70;;;4.97;;
47778;SDS011;33538;48.432;11.350;2023-02-22T06:34:31;9.68;;;4.72;;
47778;SDS011;33538;48.432;11.350;2023-02-22T06:36:58;11.07;;;4.78;;
47778;SDS011;33538;48.432;11.350;2023-02-22T06:39:25;9.50;;;4.82;;
47778;SDS011;33538;48.432;11.350;2023-02-22T06:41:53;7.50;;;4.53;;
47778;SDS011;33538;48.432;11.350;2023-02-22T06:44:20;9.55;;;4.65;;
47778;SDS011;33538;48.432;11.350;2023-02-22T06:46:47;9.38;;;4.93;;
47778;SDS011;33538;48.432;11.350;2023-02-22T06:49:15;11.73;;;4.93;;
47778;SDS011;33538;48.432;11.350;2023-02-22T06:51:42;8.35;;;4.43;;
47778;SDS011;33538;48.432;11.350;2023-02-22T06:54:09;8.45;;;4.57;;
47778;SDS011;33538;48.432;11.350;2023-02-22T06:56:35;9.90;;;4.78;;
47778;SDS011;33538;48.432;11.350;2023-02-22T06:59:04;10.10;;;4.82;;
47778;SDS011;33538;48.432;11.350;2023-02-22T07:01:30;8.20;;;3.95;;
47778;SDS011;33538;48.432;11.350;2023-02-22T07:03:57;6.88;;;3.97;;
47778;SDS011;33538;48.432;11.350;2023-02-22T07:06:24;10.07;;;4.45;;
47778;SDS011;33538;48.432;11.350;2023-02-22T07:08:50;9.65;;;4.32;;
47778;SDS011;33538;48.432;11.350;2023-02-22T07:11:17;9.70;;;4.55;;
47778;SDS011;33538;48.432;11.350;2023-02-22T07:13:44;10.23;;;5.25;;
47778;SDS011;33538;48.432;11.350;2023-02-22T07:16:12;10.98;;;4.90;;
47778;SDS011;33538;48.432;11.350;2023-02-22T07:18:39;8.50;;;5.03;;
47778;SDS011;33538;48.432;11.350;2023-02-22T07:21:06;9.20;;;4.78;;
47778;SDS011;33538;48.432;11.350;2023-02-22T07:23:33;9.25;;;4.50;;
47778;SDS011;33538;48.432;11.350;2023-02-22T07:26:00;7.45;;;4.95;;
47778;SDS011;33538;48.432;11.350;2023-02-22T07:28:27;9.55;;;5.55;;
47778;SDS011;33538;48.432;11.350;2023-02-22T07:30:54;14.65;;;6.00;;
47778;SDS011;33538;48.432;11.350;2023-02-22T07:33:22;11.10;;;5.32;;
47778;SDS011;33538;48.432;11.350;2023-02-22T07:35:49;15.63;;;5.43;;
47778;SDS011;33538;48.432;11.350;2023-02-22T07:38:17;12.77;;;5.68;;
47778;SDS011;33538;48.432;11.350;2023-02-22T07:40:45;21.23;;;6.65;;
47778;SDS011;33538;48.432;11.350;2023-02-22T07:43:13;18.45;;;6.35;;
47778;SDS011;33538;48.432;11.350;2023-02-22T07:45:42;13.55;;;6.32;;
47778;SDS011;33538;48.432;11.350;2023-02-22T07:48:10;17.00;;;7.22;;
47778;SDS011;33538;48.432;11.350;2023-02-22T07:50:40;23.08;;;8.27;;
47778;SDS011;33538;48.432;11.350;2023-02-22T07:53:09;8.27;;;5.05;;
47778;SDS011;33538;48.432;11.350;2023-02-22T07:55:38;12.82;;;6.03;;
47778;SDS011;33538;48.432;11.350;2023-02-22T07:58:06;17.40;;;8.10;;
47778;SDS011;33538;48.432;11.350;2023-02-22T08:00:34;16.27;;;7.75;;
47778;SDS011;33538;48.432;11.350;2023-02-22T08:03:03;17.95;;;8.73;;
47778;SDS011;33538;48.432;11.350;2023-02-22T08:05:32;18.85;;;7.88;;
47778;SDS011;33538;48.432;11.350;2023-02-22T08:08:01;15.80;;;8.07;;
47778;SDS011;33538;48.432;11.350;2023-02-22T08:10:28;19.42;;;8.32;;
47778;SDS011;33538;48.432;11.350;2023-02-22T08:12:55;11.77;;;6.45;;
47778;SDS011;33538;48.432;11.350;2023-02-22T08:15:23;10.77;;;6.45;;
47778;SDS011;33538;48.432;11.350;2023-02-22T08:17:51;11.73;;;6.10;;
47778;SDS011;33538;48.432;11.350;2023-02-22T08:20:18;10.02;;;6.25;;
47778;SDS011;33538;48.432;11.350;2023-02-22T08:22:45;14.82;;;6.50;;
47778;SDS011;33538;48.432;11.350;2023-02-22T08:25:15;11.43;;;6.30;;
47778;SDS011;33538;48.432;11.350;2023-02-22T08:27:43;15.10;;;7.22;;
47778;SDS011;33538;48.432;11.350;2023-02-22T08:30:12;13.98;;;6.85;;
47778;SDS011;33538;48.432;11.350;2023-02-22T08:32:40;11.88;;;6.07;;
47778;SDS011;33538;48.432;11.350;2023-02-22T08:35:07;11.30;;;5.78;;
47778;SDS011;33538;48.432;11.350;2023-02-22T08:37:34;12.20;;;5.47;;
47778;SDS011;33538;48.432;11.350;2023-02-22T08:40:01;9.43;;;5.00;;
47778;SDS011;33538;48.432;11.350;2023-02-22T08:42:29;6.65;;;3.75;;
47778;SDS011;33538;48.432;11.350;2023-02-22T08:44:56;6.70;;;3.80;;
47778;SDS011;33538;48.432;11.350;2023-02-22T08:47:22;6.88;;;3.50;;
47778;SDS011;33538;48.432;11.350;2023-02-22T08:49:50;6.13;;;3.75;;
47778;SDS011;33538;48.432;11.350;2023-02-22T08:52:17;5.10;;;3.17;;
47778;SDS011;33538;48.432;11.350;2023-02-22T08:54:45;6.43;;;3.58;;
47778;SDS011;33538;48.432;11.350;2023-02-22T08:57:11;6.00;;;3.53;;
47778;SDS011;33538;48.432;11.350;2023-02-22T08:59:39;7.38;;;3.30;;
47778;SDS011;33538;48.432;11.350;2023-02-22T09:02:09;6.30;;;3.45;;
47778;SDS011;33538;48.432;11.350;2023-02-22T09:04:40;7.35;;;3.30;;
47778;SDS011;33538;48.432;11.350;2023-02-22T09:07:06;5.90;;;3.13;;
47778;SDS011;33538;48.432;11.350;2023-02-22T09:09:33;5.25;;;3.10;;
47778;SDS011;33538;48.432;11.350;2023-02-22T09:12:00;5.22;;;2.90;;
47778;SDS011;33538;48.432;11.350;2023-02-22T09:14:27;4.35;;;2.60;;
47778;SDS011;33538;48.432;11.350;2023-02-22T09:16:55;6.13;;;3.38;;
47778;SDS011;33538;48.432;11.350;2023-02-22T09:19:22;3.72;;;2.70;;
47778;SDS011;33538;48.432;11.350;2023-02-22T09:21:51;3.35;;;2.28;;
47778;SDS011;33538;48.432;11.350;2023-02-22T09:24:18;7.55;;;3.20;;
47778;SDS011;33538;48.432;11.350;2023-02-22T09:26:45;5.55;;;2.60;;
47778;SDS011;33538;48.432;11.350;2023-02-22T09:29:13;5.00;;;2.83;;
47778;SDS011;33538;48.432;11.350;2023-02-22T09:31:40;5.40;;;2.95;;
47778;SDS011;33538;48.432;11.350;2023-02-22T09:34:08;8.90;;;2.95;;
47778;SDS011;33538;48.432;11.350;2023-02-22T09:36:35;3.67;;;2.45;;
47778;SDS011;33538;48.432;11.350;2023-02-22T09:39:02;4.00;;;2.80;;
47778;SDS011;33538;48.432;11.350;2023-02-22T09:41:29;5.18;;;2.70;;
47778;SDS011;33538;48.432;11.350;2023-02-22T09:44:05;4.65;;;2.38;;
47778;SDS011;33538;48.432;11.350;2023-02-22T09:46:40;4.70;;;2.30;;
47778;SDS011;33538;48.432;11.350;2023-02-22T09:49:15;4.53;;;2.90;;
47778;SDS011;33538;48.432;11.350;2023-02-22T09:51:46;7.60;;;2.70;;
47778;SDS011;33538;48.432;11.350;2023-02-22T09:54:20;4.87;;;2.63;;
47778;SDS011;33538;48.432;11.350;2023-02-22T09:56:50;4.00;;;2.08;;
47778;SDS011;33538;48.432;11.350;2023-02-22T09:59:22;5.60;;;2.60;;
47778;SDS011;33538;48.432;11.350;2023-02-22T10:01:54;2.90;;;1.95;;
47778;SDS011;33538;48.432;11.350;2023-02-22T10:04:31;2.88;;;2.05;;
47778;SDS011;33538;48.432;11.350;2023-02-22T10:07:05;4.85;;;2.83;;
47778;SDS011;33538;48.432;11.350;2023-02-22T10:09:41;6.35;;;2.22;;
47778;SDS011;33538;48.432;11.350;2023-02-22T10:12:11;3.33;;;2.10;;
47778;SDS011;33538;48.432;11.350;2023-02-22T10:14:47;3.88;;;2.20;;
47778;SDS011;33538;48.432;11.350;2023-02-22T10:17:23;4.22;;;2.55;;
47778;SDS011;33538;48.432;11.350;2023-02-22T10:20:02;2.85;;;2.30;;
47778;SDS011;33538;48.432;11.350;2023-02-22T10:22:45;2.58;;;2.00;;
47778;SDS011;33538;48.432;11.350;2023-02-22T10:25:22;3.97;;;2.30;;
47778;SDS011;33538;48.432;11.350;2023-02-22T10:27:51;4.63;;;2.35;;
47778;SDS011;33538;48.432;11.350;2023-02-22T10:30:24;3.08;;;2.28;;
47778;SDS011;33538;48.432;11.350;2023-02-22T10:32:56;3.40;;;2.70;;
47778;SDS011;33538;48.432;11.350;2023-02-22T10:35:32;4.22;;;2.60;;
47778;SDS011;33538;48.432;11.350;2023-02-22T10:38:05;5.03;;;2.63;;
47778;SDS011;33538;48.432;11.350;2023-02-22T10:40:39;4.32;;;2.42;;
47778;SDS011;33538;48.432;11.350;2023-02-22T10:43:11;6.03;;;2.78;;
47778;SDS011;33538;48.432;11.350;2023-02-22T10:45:38;5.50;;;3.40;;
47778;SDS011;33538;48.432;11.350;2023-02-22T10:48:06;6.18;;;2.90;;
47778;SDS011;33538;48.432;11.350;2023-02-22T10:50:36;5.35;;;2.95;;
47778;SDS011;33538;48.432;11.350;2023-02-22T10:53:05;5.85;;;3.30;;
47778;SDS011;33538;48.432;11.350;2023-02-22T10:55:31;5.65;;;2.97;;
47778;SDS011;33538;48.432;11.350;2023-02-22T10:57:59;7.80;;;3.10;;
47778;SDS011;33538;48.432;11.350;2023-02-22T11:00:29;4.15;;;2.60;;
47778;SDS011;33538;48.432;11.350;2023-02-22T11:02:57;4.15;;;2.55;;
47778;SDS011;33538;48.432;11.350;2023-02-22T11:05:26;4.32;;;2.90;;
47778;SDS011;33538;48.432;11.350;2023-02-22T11:10:48;5.07;;;2.72;;
47778;SDS011;33538;48.432;11.350;2023-02-22T11:13:16;7.22;;;3.00;;
47778;SDS011;33538;48.432;11.350;2023-02-22T11:15:44;8.95;;;3.20;;
47778;SDS011;33538;48.432;11.350;2023-02-22T11:18:21;5.72;;;3.08;;
47778;SDS011;33538;48.432;11.350;2023-02-22T11:20:57;5.60;;;2.97;;
47778;SDS011;33538;48.432;11.350;2023-02-22T11:23:36;6.60;;;2.75;;
47778;SDS011;33538;48.432;11.350;2023-02-22T11:26:06;6.88;;;2.80;;
47778;SDS011;33538;48.432;11.350;2023-02-22T11:28:34;5.60;;;2.95;;
47778;SDS011;33538;48.432;11.350;2023-02-22T11:31:12;6.35;;;2.65;;
47778;SDS011;33538;48.432;11.350;2023-02-22T11:33:45;4.45;;;2.72;;
47778;SDS011;33538;48.432;11.350;2023-02-22T11:36:16;5.60;;;2.70;;
47778;SDS011;33538;48.432;11.350;2023-02-22T11:38:58;3.67;;;2.67;;
47778;SDS011;33538;48.432;11.350;2023-02-22T11:41:26;5.55;;;2.53;;
47778;SDS011;33538;48.432;11.350;2023-02-22T11:43:54;4.40;;;2.60;;
47778;SDS011;33538;48.432;11.350;2023-02-22T11:46:39;3.85;;;2.38;;
47778;SDS011;33538;48.432;11.350;2023-02-22T11:49:08;6.72;;;3.00;;
47778;SDS011;33538;48.432;11.350;2023-02-22T11:51:40;6.18;;;3.10;;
47778;SDS011;33538;48.432;11.350;2023-02-22T11:54:45;5.28;;;2.72;;
47778;SDS011;33538;48.432;11.350;2023-02-22T11:57:33;7.68;;;2.78;;
47778;SDS011;33538;48.432;11.350;2023-02-22T12:00:13;6.20;;;2.30;;
47778;SDS011;33538;48.432;11.350;2023-02-22T12:02:48;5.03;;;2.15;;
47778;SDS011;33538;48.432;11.350;2023-02-22T12:05:29;8.82;;;2.90;;
47778;SDS011;33538;48.432;11.350;2023-02-22T12:08:13;3.53;;;2.33;;
47778;SDS011;33538;48.432;11.350;2023-02-22T12:10:56;9.85;;;2.47;;
47778;SDS011;33538;48.432;11.350;2023-02-22T12:13:36;3.03;;;1.88;;
47778;SDS011;33538;48.432;11.350;2023-02-22T12:16:17;3.42;;;1.92;;
47778;SDS011;33538;48.432;11.350;2023-02-22T12:18:55;3.40;;;1.80;;
47778;SDS011;33538;48.432;11.350;2023-02-22T12:21:31;2.65;;;1.65;;
47778;SDS011;33538;48.432;11.350;2023-02-22T12:24:04;4.10;;;2.35;;
47778;SDS011;33538;48.432;11.350;2023-02-22T12:26:36;2.20;;;1.88;;
47778;SDS011;33538;48.432;11.350;2023-02-22T12:29:08;2.92;;;1.70;;
47778;SDS011;33538;48.432;11.350;2023-02-22T12:31:40;4.78;;;1.90;;
47778;SDS011;33538;48.432;11.350;2023-02-22T12:34:12;3.00;;;1.73;;
47778;SDS011;33538;48.432;11.350;2023-02-22T12:36:52;3.72;;;1.27;;
47778;SDS011;33538;48.432;11.350;2023-02-22T12:39:26;2.65;;;1.77;;
47778;SDS011;33538;48.432;11.350;2023-02-22T12:42:21;2.03;;;1.42;;
47778;SDS011;33538;48.432;11.350;2023-02-22T12:44:57;1.48;;;1.33;;
47778;SDS011;33538;48.432;11.350;2023-02-22T12:47:33;1.75;;;1.58;;
47778;SDS011;33538;48.432;11.350;2023-02-22T12:50:08;3.50;;;1.50;;
47778;SDS011;33538;48.432;11.350;2023-02-22T12:52:43;3.58;;;1.70;;
47778;SDS011;33538;48.432;11.350;2023-02-22T12:55:13;2.00;;;1.30;;
47778;SDS011;33538;48.432;11.350;2023-02-22T12:57:48;4.65;;;1.80;;
47778;SDS011;33538;48.432;11.350;2023-02-22T13:00:19;1.80;;;1.30;;
47778;SDS011;33538;48.432;11.350;2023-02-22T13:02:52;3.00;;;1.60;;
47778;SDS011;33538;48.432;11.350;2023-02-22T13:05:23;1.92;;;1.15;;
47778;SDS011;33538;48.432;11.350;2023-02-22T13:07:54;1.52;;;1.23;;
47778;SDS011;33538;48.432;11.350;2023-02-22T13:10:47;3.78;;;1.77;;
47778;SDS011;33538;48.432;11.350;2023-02-22T13:13:27;1.98;;;1.52;;
47778;SDS011;33538;48.432;11.350;2023-02-22T13:16:01;4.53;;;1.20;;
47778;SDS011;33538;48.432;11.350;2023-02-22T13:21:04;1.90;;;1.30;;
47778;SDS011;33538;48.432;11.350;2023-02-22T13:23:42;3.53;;;1.30;;
47778;SDS011;33538;48.432;11.350;2023-02-22T13:26:20;3.13;;;1.30;;
47778;SDS011;33538;48.432;11.350;2023-02-22T13:31:29;2.45;;;1.38;;
47778;SDS011;33538;48.432;11.350;2023-02-22T13:34:17;2.22;;;1.50;;
47778;SDS011;33538;48.432;11.350;2023-02-22T13:37:01;1.80;;;1.25;;
47778;SDS011;33538;48.432;11.350;2023-02-22T13:39:44;2.60;;;1.40;;
47778;SDS011;33538;48.432;11.350;2023-02-22T13:42:33;1.83;;;1.20;;
47778;SDS011;33538;48.432;11.350;2023-02-22T13:48:36;2.22;;;1.35;;
47778;SDS011;33538;48.432;11.350;2023-02-22T13:51:33;2.72;;;1.30;;
47778;SDS011;33538;48.432;11.350;2023-02-22T13:54:12;2.63;;;1.60;;
47778;SDS011;33538;48.432;11.350;2023-02-22T13:56:45;3.35;;;1.60;;
47778;SDS011;33538;48.432;11.350;2023-02-22T13:59:27;1.67;;;1.30;;
47778;SDS011;33538;48.432;11.350;2023-02-22T14:01:57;2.50;;;1.70;;
47778;SDS011;33538;48.432;11.350;2023-02-22T14:04:33;1.60;;;1.20;;
47778;SDS011;33538;48.432;11.350;2023-02-22T14:10:34;2.35;;;1.38;;
47778;SDS011;33538;48.432;11.350;2023-02-22T14:13:11;1.95;;;1.45;;
47778;SDS011;33538;48.432;11.350;2023-02-22T14:18:41;2.28;;;1.50;;
47778;SDS011;33538;48.432;11.350;2023-02-22T14:21:09;2.70;;;1.38;;
47778;SDS011;33538;48.432;11.350;2023-02-22T14:23:38;1.73;;;1.40;;
47778;SDS011;33538;48.432;11.350;2023-02-22T14:26:09;2.17;;;1.70;;
47778;SDS011;33538;48.432;11.350;2023-02-22T14:28:40;2.90;;;1.60;;
47778;SDS011;33538;48.432;11.350;2023-02-22T14:31:12;4.35;;;1.83;;
47778;SDS011;33538;48.432;11.350;2023-02-22T14:34:03;3.55;;;1.98;;
47778;SDS011;33538;48.432;11.350;2023-02-22T14:36:33;6.75;;;1.60;;
47778;SDS011;33538;48.432;11.350;2023-02-22T14:39:06;2.75;;;1.60;;
47778;SDS011;33538;48.432;11.350;2023-02-22T14:41:39;3.00;;;1.90;;
47778;SDS011;33538;48.432;11.350;2023-02-22T14:44:11;2.00;;;1.50;;
47778;SDS011;33538;48.432;11.350;2023-02-22T14:46:41;3.30;;;1.85;;
47778;SDS011;33538;48.432;11.350;2023-02-22T14:49:12;1.92;;;1.50;;
47778;SDS011;33538;48.432;11.350;2023-02-22T14:51:48;2.22;;;1.55;;
47778;SDS011;33538;48.432;11.350;2023-02-22T14:56:51;2.53;;;1.73;;
47778;SDS011;33538;48.432;11.350;2023-02-22T14:59:24;4.13;;;2.00;;
47778;SDS011;33538;48.432;11.350;2023-02-22T15:02:02;4.13;;;1.92;;
47778;SDS011;33538;48.432;11.350;2023-02-22T15:04:38;2.08;;;1.58;;
47778;SDS011;33538;48.432;11.350;2023-02-22T15:07:07;2.17;;;1.58;;
47778;SDS011;33538;48.432;11.350;2023-02-22T15:09:46;4.05;;;2.00;;
47778;SDS011;33538;48.432;11.350;2023-02-22T15:12:15;2.33;;;1.83;;
47778;SDS011;33538;48.432;11.350;2023-02-22T15:14:49;2.17;;;1.67;;
47778;SDS011;33538;48.432;11.350;2023-02-22T15:17:34;2.67;;;1.60;;
47778;SDS011;33538;48.432;11.350;2023-02-22T15:20:05;3.03;;;1.83;;
47778;SDS011;33538;48.432;11.350;2023-02-22T15:22:33;4.55;;;1.90;;